Jacksonville/Cecil Field NAS, Florida
Current Conditions -  °F | °C
As of 8:15 PM on Tuesday 27 Jan 2015 (Local Time) from KVQQ Reporting Station
Clear Clear  
Wind Chill: 44°   Ceiling: Unl
Heat Index: 46°   Visibility: 10mi
Dew Point: 36°   Wind: 5mph
Humidity: 66%   Direction: 330°NNW
Pressure: 30.02"   Gusts: NA
Location:  30.22°N, 81.88°W
Report Text: KVQQ 280115Z AUTO 33004KT 10SM CLR 08/02 A3002 RMK AO2
Loading
Personal Weather Stations






























Interactive Weather Map New forecast layout! Learn more

10-Day Weather Forecast

Advertisements
Track Severe Weather on mobile